sensor_id;sensor_type;location;lat;lon;timestamp;temperature;humidity
64143;DHT22;50437;51.970;5.904;2023-05-19T00:02:13;10.30;99.90
64143;DHT22;50437;51.970;5.904;2023-05-19T00:04:43;10.20;99.90
64143;DHT22;50437;51.970;5.904;2023-05-19T00:07:11;10.20;99.90
64143;DHT22;50437;51.970;5.904;2023-05-19T00:09:52;10.20;99.90
64143;DHT22;50437;51.970;5.904;2023-05-19T00:12:20;10.20;99.90
64143;DHT22;50437;51.970;5.904;2023-05-19T00:14:46;10.10;99.90
64143;DHT22;50437;51.970;5.904;2023-05-19T00:17:12;10.10;99.90
64143;DHT22;50437;51.970;5.904;2023-05-19T00:19:39;10.00;99.90
64143;DHT22;50437;51.970;5.904;2023-05-19T00:22:05;10.00;99.90
64143;DHT22;50437;51.970;5.904;2023-05-19T00:24:31;10.00;99.90
64143;DHT22;50437;51.970;5.904;2023-05-19T00:26:57;9.90;99.90
64143;DHT22;50437;51.970;5.904;2023-05-19T00:29:23;10.00;99.90
64143;DHT22;50437;51.970;5.904;2023-05-19T00:31:49;10.00;99.90
64143;DHT22;50437;51.970;5.904;2023-05-19T00:34:15;9.90;99.90
64143;DHT22;50437;51.970;5.904;2023-05-19T00:36:41;10.00;99.90
64143;DHT22;50437;51.970;5.904;2023-05-19T00:39:07;9.90;99.90
64143;DHT22;50437;51.970;5.904;2023-05-19T00:41:33;9.80;99.90
64143;DHT22;50437;51.970;5.904;2023-05-19T00:43:59;9.80;99.90
64143;DHT22;50437;51.970;5.904;2023-05-19T00:46:25;9.80;99.90
64143;DHT22;50437;51.970;5.904;2023-05-19T00:48:51;9.70;99.90
64143;DHT22;50437;51.970;5.904;2023-05-19T00:51:17;9.80;99.90
64143;DHT22;50437;51.970;5.904;2023-05-19T00:53:43;9.70;99.90
64143;DHT22;50437;51.970;5.904;2023-05-19T00:56:13;9.60;99.90
64143;DHT22;50437;51.970;5.904;2023-05-19T00:58:41;9.60;99.90
64143;DHT22;50437;51.970;5.904;2023-05-19T01:01:07;9.60;99.90
64143;DHT22;50437;51.970;5.904;2023-05-19T01:03:34;9.70;99.90
64143;DHT22;50437;51.970;5.904;2023-05-19T01:06:00;9.50;99.90
64143;DHT22;50437;51.970;5.904;2023-05-19T01:08:32;9.60;99.90
64143;DHT22;50437;51.970;5.904;2023-05-19T01:10:58;9.60;99.90
64143;DHT22;50437;51.970;5.904;2023-05-19T01:13:25;9.60;99.90
64143;DHT22;50437;51.970;5.904;2023-05-19T01:16:06;9.50;99.90
64143;DHT22;50437;51.970;5.904;2023-05-19T01:18:43;9.50;99.90
64143;DHT22;50437;51.970;5.904;2023-05-19T01:21:27;9.40;99.90
64143;DHT22;50437;51.970;5.904;2023-05-19T01:32:04;9.30;99.90
64143;DHT22;50437;51.970;5.904;2023-05-19T01:34:34;9.30;99.90
64143;DHT22;50437;51.970;5.904;2023-05-19T01:37:02;9.30;99.90
64143;DHT22;50437;51.970;5.904;2023-05-19T01:39:32;9.40;99.90
64143;DHT22;50437;51.970;5.904;2023-05-19T01:41:59;9.40;99.90
64143;DHT22;50437;51.970;5.904;2023-05-19T01:44:27;9.30;99.90
64143;DHT22;50437;51.970;5.904;2023-05-19T01:46:53;9.30;99.90
64143;DHT22;50437;51.970;5.904;2023-05-19T01:49:20;9.30;99.90
64143;DHT22;50437;51.970;5.904;2023-05-19T01:51:48;9.20;99.90
64143;DHT22;50437;51.970;5.904;2023-05-19T01:54:14;9.20;99.90
64143;DHT22;50437;51.970;5.904;2023-05-19T01:56:42;9.10;99.90
64143;DHT22;50437;51.970;5.904;2023-05-19T02:02:07;9.10;99.90
64143;DHT22;50437;51.970;5.904;2023-05-19T02:04:41;9.10;99.90
64143;DHT22;50437;51.970;5.904;2023-05-19T02:07:11;9.10;99.90
64143;DHT22;50437;51.970;5.904;2023-05-19T02:09:47;9.00;99.90
64143;DHT22;50437;51.970;5.904;2023-05-19T02:12:31;9.00;99.90
64143;DHT22;50437;51.970;5.904;2023-05-19T02:15:01;9.10;99.90
64143;DHT22;50437;51.970;5.904;2023-05-19T02:17:29;9.10;99.90
64143;DHT22;50437;51.970;5.904;2023-05-19T02:19:58;8.90;99.90
64143;DHT22;50437;51.970;5.904;2023-05-19T02:22:24;8.90;99.90
64143;DHT22;50437;51.970;5.904;2023-05-19T02:24:50;9.00;99.90
64143;DHT22;50437;51.970;5.904;2023-05-19T02:27:16;9.00;99.90
64143;DHT22;50437;51.970;5.904;2023-05-19T02:29:42;9.00;99.90
64143;DHT22;50437;51.970;5.904;2023-05-19T02:32:09;8.90;99.90
64143;DHT22;50437;51.970;5.904;2023-05-19T02:34:35;8.90;99.90
64143;DHT22;50437;51.970;5.904;2023-05-19T02:37:03;8.90;99.90
64143;DHT22;50437;51.970;5.904;2023-05-19T02:39:29;8.80;99.90
64143;DHT22;50437;51.970;5.904;2023-05-19T02:42:00;8.80;99.90
64143;DHT22;50437;51.970;5.904;2023-05-19T02:44:26;8.70;99.90
64143;DHT22;50437;51.970;5.904;2023-05-19T02:46:52;8.60;99.90
64143;DHT22;50437;51.970;5.904;2023-05-19T02:49:18;8.70;99.90
64143;DHT22;50437;51.970;5.904;2023-05-19T02:51:44;8.60;99.90
64143;DHT22;50437;51.970;5.904;2023-05-19T02:54:10;8.60;99.90
64143;DHT22;50437;51.970;5.904;2023-05-19T02:56:36;8.60;99.90
64143;DHT22;50437;51.970;5.904;2023-05-19T02:59:02;8.60;99.90
64143;DHT22;50437;51.970;5.904;2023-05-19T03:01:28;8.60;99.90
64143;DHT22;50437;51.970;5.904;2023-05-19T03:03:54;8.50;99.90
64143;DHT22;50437;51.970;5.904;2023-05-19T03:06:20;8.40;99.90
64143;DHT22;50437;51.970;5.904;2023-05-19T03:08:49;8.50;99.90
64143;DHT22;50437;51.970;5.904;2023-05-19T03:11:15;8.40;99.90
64143;DHT22;50437;51.970;5.904;2023-05-19T03:13:41;8.50;99.90
64143;DHT22;50437;51.970;5.904;2023-05-19T03:16:07;8.40;99.90
64143;DHT22;50437;51.970;5.904;2023-05-19T03:18:33;8.50;99.90
64143;DHT22;50437;51.970;5.904;2023-05-19T03:20:59;8.50;99.90
64143;DHT22;50437;51.970;5.904;2023-05-19T03:23:25;8.40;99.90
64143;DHT22;50437;51.970;5.904;2023-05-19T03:25:51;8.40;99.90
64143;DHT22;50437;51.970;5.904;2023-05-19T03:28:21;8.50;99.90
64143;DHT22;50437;51.970;5.904;2023-05-19T03:30:52;8.30;99.90
64143;DHT22;50437;51.970;5.904;2023-05-19T03:33:21;8.30;99.90
64143;DHT22;50437;51.970;5.904;2023-05-19T03:35:49;8.50;99.90
64143;DHT22;50437;51.970;5.904;2023-05-19T03:38:15;8.40;99.90
64143;DHT22;50437;51.970;5.904;2023-05-19T03:40:49;8.40;99.90
64143;DHT22;50437;51.970;5.904;2023-05-19T03:43:15;8.40;99.90
64143;DHT22;50437;51.970;5.904;2023-05-19T03:45:46;8.50;99.90
64143;DHT22;50437;51.970;5.904;2023-05-19T03:48:44;8.50;99.90
64143;DHT22;50437;51.970;5.904;2023-05-19T03:51:16;8.50;99.90
64143;DHT22;50437;51.970;5.904;2023-05-19T03:53:44;8.50;99.90
64143;DHT22;50437;51.970;5.904;2023-05-19T03:56:10;8.60;99.90
64143;DHT22;50437;51.970;5.904;2023-05-19T03:58:38;8.70;99.90
64143;DHT22;50437;51.970;5.904;2023-05-19T04:01:08;8.60;99.90
64143;DHT22;50437;51.970;5.904;2023-05-19T04:03:34;8.60;99.90
64143;DHT22;50437;51.970;5.904;2023-05-19T04:06:01;8.50;99.90
64143;DHT22;50437;51.970;5.904;2023-05-19T04:08:27;8.60;99.90
64143;DHT22;50437;51.970;5.904;2023-05-19T04:10:53;8.50;99.90
64143;DHT22;50437;51.970;5.904;2023-05-19T04:13:24;8.60;99.90
64143;DHT22;50437;51.970;5.904;2023-05-19T04:15:51;8.60;99.90
64143;DHT22;50437;51.970;5.904;2023-05-19T04:18:17;8.50;99.90
64143;DHT22;50437;51.970;5.904;2023-05-19T04:20:43;8.50;99.90
64143;DHT22;50437;51.970;5.904;2023-05-19T04:23:09;8.50;99.90
64143;DHT22;50437;51.970;5.904;2023-05-19T04:25:35;8.60;99.90
64143;DHT22;50437;51.970;5.904;2023-05-19T04:28:01;8.60;99.90
64143;DHT22;50437;51.970;5.904;2023-05-19T04:30:28;8.60;99.90
64143;DHT22;50437;51.970;5.904;2023-05-19T04:32:54;8.60;99.90
64143;DHT22;50437;51.970;5.904;2023-05-19T04:35:23;8.70;99.90
64143;DHT22;50437;51.970;5.904;2023-05-19T04:37:49;8.60;99.90
64143;DHT22;50437;51.970;5.904;2023-05-19T04:40:19;8.70;99.90
64143;DHT22;50437;51.970;5.904;2023-05-19T04:42:51;8.70;99.90
64143;DHT22;50437;51.970;5.904;2023-05-19T04:45:19;8.80;99.90
64143;DHT22;50437;51.970;5.904;2023-05-19T04:47:49;8.90;99.90
64143;DHT22;50437;51.970;5.904;2023-05-19T04:50:15;8.90;99.90
64143;DHT22;50437;51.970;5.904;2023-05-19T04:52:44;9.00;99.90
64143;DHT22;50437;51.970;5.904;2023-05-19T04:55:10;9.00;99.90
64143;DHT22;50437;51.970;5.904;2023-05-19T04:57:37;9.10;99.90
64143;DHT22;50437;51.970;5.904;2023-05-19T05:00:04;9.10;99.90
64143;DHT22;50437;51.970;5.904;2023-05-19T05:02:44;9.20;99.90
64143;DHT22;50437;51.970;5.904;2023-05-19T05:05:09;9.40;99.90
64143;DHT22;50437;51.970;5.904;2023-05-19T05:07:37;9.40;99.90
64143;DHT22;50437;51.970;5.904;2023-05-19T05:10:03;9.50;99.90
64143;DHT22;50437;51.970;5.904;2023-05-19T05:12:29;9.40;99.90
64143;DHT22;50437;51.970;5.904;2023-05-19T05:14:55;9.40;99.90
64143;DHT22;50437;51.970;5.904;2023-05-19T05:17:21;9.40;99.90
64143;DHT22;50437;51.970;5.904;2023-05-19T05:19:47;9.40;99.90
64143;DHT22;50437;51.970;5.904;2023-05-19T05:22:14;9.50;99.90
64143;DHT22;50437;51.970;5.904;2023-05-19T05:24:41;9.50;99.90
64143;DHT22;50437;51.970;5.904;2023-05-19T05:27:07;9.60;99.90
64143;DHT22;50437;51.970;5.904;2023-05-19T05:29:35;9.60;99.90
64143;DHT22;50437;51.970;5.904;2023-05-19T05:32:06;9.60;99.90
64143;DHT22;50437;51.970;5.904;2023-05-19T05:34:33;9.70;99.90
64143;DHT22;50437;51.970;5.904;2023-05-19T05:37:00;10.00;99.90
64143;DHT22;50437;51.970;5.904;2023-05-19T05:39:26;9.90;99.90
64143;DHT22;50437;51.970;5.904;2023-05-19T05:41:53;10.00;99.90
64143;DHT22;50437;51.970;5.904;2023-05-19T05:44:19;10.10;99.90
64143;DHT22;50437;51.970;5.904;2023-05-19T05:46:45;10.20;99.90
64143;DHT22;50437;51.970;5.904;2023-05-19T05:49:12;10.20;99.90
64143;DHT22;50437;51.970;5.904;2023-05-19T05:51:40;10.30;99.90
64143;DHT22;50437;51.970;5.904;2023-05-19T05:54:07;10.40;99.90
64143;DHT22;50437;51.970;5.904;2023-05-19T05:56:40;10.40;99.90
64143;DHT22;50437;51.970;5.904;2023-05-19T05:59:07;10.50;99.90
64143;DHT22;50437;51.970;5.904;2023-05-19T06:01:33;10.60;99.90
64143;DHT22;50437;51.970;5.904;2023-05-19T06:04:05;10.60;99.90
64143;DHT22;50437;51.970;5.904;2023-05-19T06:06:32;10.70;99.90
64143;DHT22;50437;51.970;5.904;2023-05-19T06:09:00;10.80;99.90
64143;DHT22;50437;51.970;5.904;2023-05-19T06:11:27;10.80;99.90
64143;DHT22;50437;51.970;5.904;2023-05-19T06:13:56;10.90;99.90
64143;DHT22;50437;51.970;5.904;2023-05-19T06:16:41;11.00;99.90
64143;DHT22;50437;51.970;5.904;2023-05-19T06:19:08;11.10;99.90
64143;DHT22;50437;51.970;5.904;2023-05-19T06:21:37;11.30;99.90
64143;DHT22;50437;51.970;5.904;2023-05-19T06:24:03;11.40;99.90
64143;DHT22;50437;51.970;5.904;2023-05-19T06:26:29;11.50;99.90
64143;DHT22;50437;51.970;5.904;2023-05-19T06:28:56;11.60;99.90
64143;DHT22;50437;51.970;5.904;2023-05-19T06:31:22;11.60;99.90
64143;DHT22;50437;51.970;5.904;2023-05-19T06:33:54;11.80;99.90
64143;DHT22;50437;51.970;5.904;2023-05-19T06:36:20;11.80;99.90
64143;DHT22;50437;51.970;5.904;2023-05-19T06:38:47;11.90;99.90
64143;DHT22;50437;51.970;5.904;2023-05-19T06:41:13;12.00;99.90
64143;DHT22;50437;51.970;5.904;2023-05-19T06:43:41;12.10;99.90
64143;DHT22;50437;51.970;5.904;2023-05-19T06:46:11;12.30;99.90
64143;DHT22;50437;51.970;5.904;2023-05-19T06:48:38;12.50;99.90
64143;DHT22;50437;51.970;5.904;2023-05-19T06:51:04;12.70;99.90
64143;DHT22;50437;51.970;5.904;2023-05-19T06:53:32;13.50;99.90
64143;DHT22;50437;51.970;5.904;2023-05-19T06:55:58;14.60;99.90
64143;DHT22;50437;51.970;5.904;2023-05-19T06:58:26;16.00;99.90
64143;DHT22;50437;51.970;5.904;2023-05-19T07:00:52;17.20;96.90
64143;DHT22;50437;51.970;5.904;2023-05-19T07:03:18;18.60;84.60
64143;DHT22;50437;51.970;5.904;2023-05-19T07:05:44;19.60;71.90
64143;DHT22;50437;51.970;5.904;2023-05-19T07:08:11;19.70;63.60
64143;DHT22;50437;51.970;5.904;2023-05-19T07:10:36;20.20;62.70
64143;DHT22;50437;51.970;5.904;2023-05-19T07:13:10;20.10;58.50
64143;DHT22;50437;51.970;5.904;2023-05-19T07:15:36;20.10;58.50
64143;DHT22;50437;51.970;5.904;2023-05-19T07:18:02;20.20;58.00
64143;DHT22;50437;51.970;5.904;2023-05-19T07:20:29;19.90;58.20
64143;DHT22;50437;51.970;5.904;2023-05-19T07:22:58;18.10;60.20
64143;DHT22;50437;51.970;5.904;2023-05-19T07:25:25;17.40;63.80
64143;DHT22;50437;51.970;5.904;2023-05-19T07:27:52;16.40;68.00
64143;DHT22;50437;51.970;5.904;2023-05-19T07:30:18;17.20;72.30
64143;DHT22;50437;51.970;5.904;2023-05-19T07:32:47;18.00;67.50
64143;DHT22;50437;51.970;5.904;2023-05-19T07:35:16;18.90;64.60
64143;DHT22;50437;51.970;5.904;2023-05-19T07:37:42;19.60;61.90
64143;DHT22;50437;51.970;5.904;2023-05-19T07:40:09;20.50;58.40
64143;DHT22;50437;51.970;5.904;2023-05-19T07:42:35;20.00;57.70
64143;DHT22;50437;51.970;5.904;2023-05-19T07:45:01;20.20;58.50
64143;DHT22;50437;51.970;5.904;2023-05-19T07:47:31;20.90;56.40
64143;DHT22;50437;51.970;5.904;2023-05-19T07:49:57;21.30;53.90
64143;DHT22;50437;51.970;5.904;2023-05-19T07:52:23;22.30;52.50
64143;DHT22;50437;51.970;5.904;2023-05-19T07:54:49;22.90;52.00
64143;DHT22;50437;51.970;5.904;2023-05-19T07:57:15;22.70;51.20
64143;DHT22;50437;51.970;5.904;2023-05-19T07:59:41;23.60;48.80
64143;DHT22;50437;51.970;5.904;2023-05-19T08:02:07;24.00;48.50
64143;DHT22;50437;51.970;5.904;2023-05-19T08:04:35;23.10;47.70
64143;DHT22;50437;51.970;5.904;2023-05-19T08:07:01;23.40;45.50
64143;DHT22;50437;51.970;5.904;2023-05-19T08:09:27;23.80;45.50
64143;DHT22;50437;51.970;5.904;2023-05-19T08:11:58;23.60;45.70
64143;DHT22;50437;51.970;5.904;2023-05-19T08:14:28;24.00;46.00
64143;DHT22;50437;51.970;5.904;2023-05-19T08:16:55;24.30;43.00
64143;DHT22;50437;51.970;5.904;2023-05-19T08:22:26;24.90;42.10
64143;DHT22;50437;51.970;5.904;2023-05-19T08:27:48;23.90;41.60
64143;DHT22;50437;51.970;5.904;2023-05-19T08:30:14;24.10;42.60
64143;DHT22;50437;51.970;5.904;2023-05-19T08:32:40;24.00;43.10
64143;DHT22;50437;51.970;5.904;2023-05-19T08:38:34;24.10;42.30
64143;DHT22;50437;51.970;5.904;2023-05-19T08:41:10;25.00;41.40
64143;DHT22;50437;51.970;5.904;2023-05-19T08:43:39;25.50;40.90
64143;DHT22;50437;51.970;5.904;2023-05-19T08:46:08;24.60;43.30
64143;DHT22;50437;51.970;5.904;2023-05-19T08:48:57;24.90;39.90
64143;DHT22;50437;51.970;5.904;2023-05-19T08:55:57;25.70;39.90
64143;DHT22;50437;51.970;5.904;2023-05-19T09:08:53;24.80;36.30
64143;DHT22;50437;51.970;5.904;2023-05-19T09:18:55;23.80;38.40
64143;DHT22;50437;51.970;5.904;2023-05-19T09:21:34;24.70;35.00
64143;DHT22;50437;51.970;5.904;2023-05-19T09:24:06;24.80;36.20
64143;DHT22;50437;51.970;5.904;2023-05-19T09:26:40;24.90;36.10
64143;DHT22;50437;51.970;5.904;2023-05-19T09:29:16;25.30;35.30
64143;DHT22;50437;51.970;5.904;2023-05-19T09:31:51;25.90;34.20
64143;DHT22;50437;51.970;5.904;2023-05-19T09:34:19;25.30;34.80
64143;DHT22;50437;51.970;5.904;2023-05-19T09:36:52;25.60;34.50
64143;DHT22;50437;51.970;5.904;2023-05-19T09:39:27;25.30;34.60
64143;DHT22;50437;51.970;5.904;2023-05-19T09:41:57;25.60;33.70
64143;DHT22;50437;51.970;5.904;2023-05-19T09:44:23;25.10;35.10
64143;DHT22;50437;51.970;5.904;2023-05-19T09:47:45;25.20;33.70
64143;DHT22;50437;51.970;5.904;2023-05-19T09:50:14;24.90;34.40
64143;DHT22;50437;51.970;5.904;2023-05-19T09:52:42;24.30;34.60
64143;DHT22;50437;51.970;5.904;2023-05-19T09:55:09;24.60;35.60
64143;DHT22;50437;51.970;5.904;2023-05-19T09:57:45;24.00;35.00
64143;DHT22;50437;51.970;5.904;2023-05-19T10:00:13;24.40;34.90
64143;DHT22;50437;51.970;5.904;2023-05-19T10:02:40;25.00;34.40
64143;DHT22;50437;51.970;5.904;2023-05-19T10:05:08;24.50;34.50
64143;DHT22;50437;51.970;5.904;2023-05-19T10:07:51;26.00;35.10
64143;DHT22;50437;51.970;5.904;2023-05-19T10:10:34;25.50;33.60
64143;DHT22;50437;51.970;5.904;2023-05-19T10:16:11;24.60;37.10
64143;DHT22;50437;51.970;5.904;2023-05-19T10:18:40;25.10;34.10
64143;DHT22;50437;51.970;5.904;2023-05-19T10:21:10;25.10;34.30
64143;DHT22;50437;51.970;5.904;2023-05-19T10:23:37;25.10;34.10
64143;DHT22;50437;51.970;5.904;2023-05-19T10:26:11;25.00;36.10
64143;DHT22;50437;51.970;5.904;2023-05-19T10:28:38;24.40;36.60
64143;DHT22;50437;51.970;5.904;2023-05-19T10:31:08;24.50;37.50
64143;DHT22;50437;51.970;5.904;2023-05-19T10:39:15;25.20;36.00
64143;DHT22;50437;51.970;5.904;2023-05-19T10:42:08;24.70;35.70
64143;DHT22;50437;51.970;5.904;2023-05-19T10:47:57;23.80;38.10
64143;DHT22;50437;51.970;5.904;2023-05-19T10:50:26;22.80;37.70
64143;DHT22;50437;51.970;5.904;2023-05-19T10:52:52;23.70;38.00
64143;DHT22;50437;51.970;5.904;2023-05-19T10:58:05;23.40;36.20
64143;DHT22;50437;51.970;5.904;2023-05-19T11:00:31;23.60;35.30
64143;DHT22;50437;51.970;5.904;2023-05-19T11:03:13;24.00;35.60
64143;DHT22;50437;51.970;5.904;2023-05-19T11:05:47;23.50;38.00
64143;DHT22;50437;51.970;5.904;2023-05-19T11:08:15;23.50;37.50
64143;DHT22;50437;51.970;5.904;2023-05-19T11:10:46;24.20;36.00
64143;DHT22;50437;51.970;5.904;2023-05-19T11:16:34;24.00;36.40
64143;DHT22;50437;51.970;5.904;2023-05-19T11:19:00;24.30;34.20
64143;DHT22;50437;51.970;5.904;2023-05-19T11:29:48;24.10;36.60
64143;DHT22;50437;51.970;5.904;2023-05-19T11:32:24;23.90;35.00
64143;DHT22;50437;51.970;5.904;2023-05-19T11:35:46;24.10;34.90
64143;DHT22;50437;51.970;5.904;2023-05-19T11:38:21;24.50;35.10
64143;DHT22;50437;51.970;5.904;2023-05-19T11:40:54;24.00;35.80
64143;DHT22;50437;51.970;5.904;2023-05-19T11:43:23;24.50;35.70
64143;DHT22;50437;51.970;5.904;2023-05-19T11:45:50;24.90;35.30
64143;DHT22;50437;51.970;5.904;2023-05-19T11:48:19;25.10;33.60
64143;DHT22;50437;51.970;5.904;2023-05-19T11:50:48;24.70;34.30
64143;DHT22;50437;51.970;5.904;2023-05-19T11:53:14;25.00;35.70
64143;DHT22;50437;51.970;5.904;2023-05-19T11:55:44;24.20;35.00
64143;DHT22;50437;51.970;5.904;2023-05-19T11:58:17;24.20;35.50
64143;DHT22;50437;51.970;5.904;2023-05-19T12:00:53;24.30;35.70
64143;DHT22;50437;51.970;5.904;2023-05-19T12:03:31;23.90;35.60
64143;DHT22;50437;51.970;5.904;2023-05-19T12:06:00;23.90;36.20
64143;DHT22;50437;51.970;5.904;2023-05-19T12:08:33;23.80;35.90
64143;DHT22;50437;51.970;5.904;2023-05-19T12:10:59;24.00;37.00
64143;DHT22;50437;51.970;5.904;2023-05-19T12:13:36;24.20;36.40
64143;DHT22;50437;51.970;5.904;2023-05-19T12:16:05;24.10;35.40
64143;DHT22;50437;51.970;5.904;2023-05-19T12:18:35;23.70;37.10
64143;DHT22;50437;51.970;5.904;2023-05-19T12:21:01;23.50;37.00
64143;DHT22;50437;51.970;5.904;2023-05-19T12:23:36;23.40;38.40
64143;DHT22;50437;51.970;5.904;2023-05-19T12:26:17;23.60;36.00
64143;DHT22;50437;51.970;5.904;2023-05-19T12:28:52;23.00;37.50
64143;DHT22;50437;51.970;5.904;2023-05-19T12:31:18;23.60;39.10
64143;DHT22;50437;51.970;5.904;2023-05-19T12:33:55;23.20;37.50
64143;DHT22;50437;51.970;5.904;2023-05-19T12:36:22;23.40;36.00
64143;DHT22;50437;51.970;5.904;2023-05-19T12:38:54;23.70;36.40
64143;DHT22;50437;51.970;5.904;2023-05-19T12:41:20;23.90;35.60
64143;DHT22;50437;51.970;5.904;2023-05-19T12:43:48;23.80;36.20
64143;DHT22;50437;51.970;5.904;2023-05-19T12:46:17;24.00;37.00
64143;DHT22;50437;51.970;5.904;2023-05-19T12:48:43;23.70;35.40
64143;DHT22;50437;51.970;5.904;2023-05-19T12:51:14;23.70;37.10
64143;DHT22;50437;51.970;5.904;2023-05-19T12:53:44;23.30;35.80
64143;DHT22;50437;51.970;5.904;2023-05-19T12:56:19;23.90;35.60
64143;DHT22;50437;51.970;5.904;2023-05-19T12:58:46;24.20;34.70
64143;DHT22;50437;51.970;5.904;2023-05-19T13:01:16;24.40;35.00
64143;DHT22;50437;51.970;5.904;2023-05-19T13:03:42;24.30;36.50
64143;DHT22;50437;51.970;5.904;2023-05-19T13:06:23;24.40;36.80
64143;DHT22;50437;51.970;5.904;2023-05-19T13:08:53;23.20;37.10
64143;DHT22;50437;51.970;5.904;2023-05-19T13:11:22;22.70;37.90
64143;DHT22;50437;51.970;5.904;2023-05-19T13:13:48;22.10;37.20
64143;DHT22;50437;51.970;5.904;2023-05-19T13:16:20;22.40;38.80
64143;DHT22;50437;51.970;5.904;2023-05-19T13:18:48;22.90;36.90
64143;DHT22;50437;51.970;5.904;2023-05-19T13:21:14;23.00;37.20
64143;DHT22;50437;51.970;5.904;2023-05-19T13:23:52;23.40;35.90
64143;DHT22;50437;51.970;5.904;2023-05-19T13:26:18;23.50;38.10
64143;DHT22;50437;51.970;5.904;2023-05-19T13:28:44;23.50;38.20
64143;DHT22;50437;51.970;5.904;2023-05-19T13:31:13;22.80;37.90
64143;DHT22;50437;51.970;5.904;2023-05-19T13:33:39;22.70;37.60
64143;DHT22;50437;51.970;5.904;2023-05-19T13:36:05;22.80;39.50
64143;DHT22;50437;51.970;5.904;2023-05-19T13:38:31;22.80;37.90
64143;DHT22;50437;51.970;5.904;2023-05-19T13:40:57;22.00;38.00
64143;DHT22;50437;51.970;5.904;2023-05-19T13:43:23;21.70;38.60
64143;DHT22;50437;51.970;5.904;2023-05-19T13:45:49;21.60;39.80
64143;DHT22;50437;51.970;5.904;2023-05-19T13:48:15;21.60;39.20
64143;DHT22;50437;51.970;5.904;2023-05-19T13:50:41;22.10;38.40
64143;DHT22;50437;51.970;5.904;2023-05-19T13:53:15;22.20;36.60
64143;DHT22;50437;51.970;5.904;2023-05-19T13:55:41;22.50;38.00
64143;DHT22;50437;51.970;5.904;2023-05-19T13:58:10;22.70;38.30
64143;DHT22;50437;51.970;5.904;2023-05-19T14:00:38;22.90;37.40
64143;DHT22;50437;51.970;5.904;2023-05-19T14:03:04;23.00;38.80
64143;DHT22;50437;51.970;5.904;2023-05-19T14:05:30;22.60;37.90
64143;DHT22;50437;51.970;5.904;2023-05-19T14:07:56;22.40;38.80
64143;DHT22;50437;51.970;5.904;2023-05-19T14:10:25;22.40;38.40
64143;DHT22;50437;51.970;5.904;2023-05-19T14:12:51;22.20;38.80
64143;DHT22;50437;51.970;5.904;2023-05-19T14:15:18;22.40;37.90
64143;DHT22;50437;51.970;5.904;2023-05-19T14:17:47;22.50;36.10
64143;DHT22;50437;51.970;5.904;2023-05-19T14:20:22;22.60;37.20
64143;DHT22;50437;51.970;5.904;2023-05-19T14:22:49;22.90;36.30
64143;DHT22;50437;51.970;5.904;2023-05-19T14:25:15;23.00;36.50
64143;DHT22;50437;51.970;5.904;2023-05-19T14:27:41;23.20;37.40
64143;DHT22;50437;51.970;5.904;2023-05-19T14:30:07;22.90;35.70
64143;DHT22;50437;51.970;5.904;2023-05-19T14:32:39;22.60;36.00
64143;DHT22;50437;51.970;5.904;2023-05-19T14:35:05;22.30;35.40
64143;DHT22;50437;51.970;5.904;2023-05-19T14:37:34;22.30;36.20
64143;DHT22;50437;51.970;5.904;2023-05-19T14:40:00;22.00;37.20
64143;DHT22;50437;51.970;5.904;2023-05-19T14:42:26;22.10;37.50
64143;DHT22;50437;51.970;5.904;2023-05-19T14:44:55;22.40;37.60
64143;DHT22;50437;51.970;5.904;2023-05-19T14:47:21;22.60;37.90
64143;DHT22;50437;51.970;5.904;2023-05-19T14:49:53;22.50;37.10
64143;DHT22;50437;51.970;5.904;2023-05-19T14:52:20;22.30;37.20
64143;DHT22;50437;51.970;5.904;2023-05-19T14:54:46;22.00;38.50
64143;DHT22;50437;51.970;5.904;2023-05-19T14:57:12;22.10;38.10
64143;DHT22;50437;51.970;5.904;2023-05-19T14:59:44;22.50;36.10
64143;DHT22;50437;51.970;5.904;2023-05-19T15:02:10;22.90;37.20
64143;DHT22;50437;51.970;5.904;2023-05-19T15:04:49;23.00;37.00
64143;DHT22;50437;51.970;5.904;2023-05-19T15:07:15;22.50;36.70
64143;DHT22;50437;51.970;5.904;2023-05-19T15:09:44;22.20;37.30
64143;DHT22;50437;51.970;5.904;2023-05-19T15:12:10;21.90;36.90
64143;DHT22;50437;51.970;5.904;2023-05-19T15:14:37;21.70;37.30
64143;DHT22;50437;51.970;5.904;2023-05-19T15:17:17;22.20;38.00
64143;DHT22;50437;51.970;5.904;2023-05-19T15:19:43;22.60;36.50
64143;DHT22;50437;51.970;5.904;2023-05-19T15:22:12;22.60;36.80
64143;DHT22;50437;51.970;5.904;2023-05-19T15:24:38;22.90;37.10
64143;DHT22;50437;51.970;5.904;2023-05-19T15:27:06;22.80;36.50
64143;DHT22;50437;51.970;5.904;2023-05-19T15:29:32;23.20;36.10
64143;DHT22;50437;51.970;5.904;2023-05-19T15:31:58;22.80;36.30
64143;DHT22;50437;51.970;5.904;2023-05-19T15:34:25;22.40;36.60
64143;DHT22;50437;51.970;5.904;2023-05-19T15:36:51;21.60;37.70
64143;DHT22;50437;51.970;5.904;2023-05-19T15:39:17;22.00;37.70
64143;DHT22;50437;51.970;5.904;2023-05-19T15:41:43;22.20;36.10
64143;DHT22;50437;51.970;5.904;2023-05-19T15:44:09;22.30;35.30
64143;DHT22;50437;51.970;5.904;2023-05-19T15:46:35;22.20;34.40
64143;DHT22;50437;51.970;5.904;2023-05-19T15:49:01;22.30;35.60
64143;DHT22;50437;51.970;5.904;2023-05-19T15:51:28;22.50;36.30
64143;DHT22;50437;51.970;5.904;2023-05-19T15:53:54;22.80;36.50
64143;DHT22;50437;51.970;5.904;2023-05-19T15:56:20;22.60;36.10
64143;DHT22;50437;51.970;5.904;2023-05-19T15:58:47;22.50;36.00
64143;DHT22;50437;51.970;5.904;2023-05-19T16:01:15;22.20;36.50
64143;DHT22;50437;51.970;5.904;2023-05-19T16:03:51;22.30;36.50
64143;DHT22;50437;51.970;5.904;2023-05-19T16:06:17;22.70;37.60
64143;DHT22;50437;51.970;5.904;2023-05-19T16:08:44;22.50;36.10
64143;DHT22;50437;51.970;5.904;2023-05-19T16:11:10;22.30;37.30
64143;DHT22;50437;51.970;5.904;2023-05-19T16:13:36;22.10;36.30
64143;DHT22;50437;51.970;5.904;2023-05-19T16:16:02;21.80;37.30
64143;DHT22;50437;51.970;5.904;2023-05-19T16:18:37;21.70;37.90
64143;DHT22;50437;51.970;5.904;2023-05-19T16:21:07;21.90;38.30
64143;DHT22;50437;51.970;5.904;2023-05-19T16:23:33;22.20;37.00
64143;DHT22;50437;51.970;5.904;2023-05-19T16:25:59;22.10;36.50
64143;DHT22;50437;51.970;5.904;2023-05-19T16:28:25;21.80;36.40
64143;DHT22;50437;51.970;5.904;2023-05-19T16:31:03;22.00;36.40
64143;DHT22;50437;51.970;5.904;2023-05-19T16:33:33;21.80;35.60
64143;DHT22;50437;51.970;5.904;2023-05-19T16:36:08;22.10;36.20
64143;DHT22;50437;51.970;5.904;2023-05-19T16:38:39;22.10;36.80
64143;DHT22;50437;51.970;5.904;2023-05-19T16:41:11;21.70;37.00
64143;DHT22;50437;51.970;5.904;2023-05-19T16:43:46;21.40;37.20
64143;DHT22;50437;51.970;5.904;2023-05-19T16:46:17;20.80;38.00
64143;DHT22;50437;51.970;5.904;2023-05-19T16:48:43;20.80;39.60
64143;DHT22;50437;51.970;5.904;2023-05-19T16:51:09;20.80;39.50
64143;DHT22;50437;51.970;5.904;2023-05-19T16:53:36;20.90;39.10
64143;DHT22;50437;51.970;5.904;2023-05-19T16:56:11;20.70;39.10